Urbandale, Iowa
Current Conditions -  °F | °C
As of 7:54 AM on Friday 24 Oct 2014 (Local Time) from KDSM Reporting Station
Moderate Fog Moderate Fog  
Wind Chill: 59°   Ceiling: 200
Heat Index: 59°   Visibility: 0.12mi
Dew Point: 57°   Wind: 13mph
Humidity: 93%   Direction: 190°S
Pressure: 29.98"   Gusts: NA
Location:  41.63°N, 93.71°W
Report Text: KDSM 241254Z 19011KT 1/8SM R31/1400V2400FT FG VV002 15/14 A2998 RMK AO2 SFC VIS 1/4 SLP150 T01500139
Loading
Personal Weather Stations






























Interactive Weather Map
Tropical Storm Tracking
New forecast layout! Learn more

10-Day Weather Forecast

Advertisements
Track Severe Weather on mobile